Time;durP1;ratioP1;P1;durP2;ratioP2;P2;SDS_P1;SDS_P2;PMS_P1;PMS_P2;Temp;Humidity;BMP_temperature;BMP_pressure;BME280_temperature;BME280_humidity;BME280_pressure;Samples;Min_cycle;Max_cycle;Signal;HPM_P1;HPM_P2
2022/08/27 00:01:39;;;;;;;9.68;7.57;;;13.80;99.90;;;;;;4897905;29;20056;-64
2022/08/27 00:04:06;;;;;;;11.02;6.60;;;13.90;99.90;;;;;;4898350;29;20388;-67
2022/08/27 00:06:34;;;;;;;9.68;6.38;;;13.90;99.90;;;;;;4898709;29;20024;-71
2022/08/27 00:09:03;;;;;;;10.18;8.02;;;13.90;99.90;;;;;;4897850;29;20028;-72
2022/08/27 00:11:30;;;;;;;13.60;7.93;;;14.00;99.90;;;;;;4898579;29;20032;-70
2022/08/27 00:13:59;;;;;;;8.35;6.07;;;13.90;99.90;;;;;;4898779;29;20035;-69
2022/08/27 00:16:27;;;;;;;10.18;4.82;;;13.90;99.90;;;;;;4898395;29;20023;-69
2022/08/27 00:18:55;;;;;;;10.98;4.63;;;13.90;99.90;;;;;;4898688;29;20028;-71
2022/08/27 00:21:23;;;;;;;6.72;4.70;;;14.00;99.90;;;;;;4897731;29;20067;-72
2022/08/27 00:23:51;;;;;;;7.95;4.13;;;14.00;99.90;;;;;;4897730;29;20030;-71
2022/08/27 00:26:18;;;;;;;8.00;4.93;;;14.20;99.90;;;;;;4898175;29;20032;-68
2022/08/27 00:28:46;;;;;;;6.65;4.20;;;14.30;99.90;;;;;;4896632;29;20418;-68
2022/08/27 00:31:14;;;;;;;7.55;3.22;;;14.40;99.90;;;;;;4897343;29;20478;-69
2022/08/27 00:33:42;;;;;;;6.95;2.65;;;14.50;99.90;;;;;;4897233;29;20060;-71
2022/08/27 00:36:11;;;;;;;3.50;1.90;;;14.70;99.90;;;;;;4896609;29;20036;-71
2022/08/27 00:38:40;;;;;;;5.03;2.13;;;14.90;99.90;;;;;;4894182;29;20033;-69
2022/08/27 00:41:10;;;;;;;6.22;2.28;;;15.00;99.90;;;;;;4896962;29;20367;-68
2022/08/27 00:43:56;;;;;;;4.28;1.83;;;15.20;99.90;;;;;;4908786;29;20033;-68
2022/08/27 00:46:38;;;;;;;4.80;1.92;;;15.40;99.90;;;;;;4893340;29;20131;-70
2022/08/27 00:49:24;;;;;;;4.63;1.85;;;15.60;99.90;;;;;;4896526;29;20033;-69
2022/08/27 00:52:11;;;;;;;5.03;1.40;;;15.70;99.90;;;;;;4896812;29;20419;-69
2022/08/27 00:54:38;;;;;;;3.53;1.33;;;15.70;99.90;;;;;;4891421;29;20032;-71
2022/08/27 00:57:06;;;;;;;1.73;1.10;;;15.80;99.90;;;;;;4897322;29;20104;-71
2022/08/27 00:59:34;;;;;;;2.22;0.80;;;15.70;99.90;;;;;;4896893;29;20163;-72
2022/08/27 01:02:20;;;;;;;3.90;1.75;;;15.60;99.90;;;;;;4897688;29;20088;-72
2022/08/27 01:05:06;;;;;;;3.15;2.00;;;15.50;99.90;;;;;;4897531;29;20128;-69
2022/08/27 01:07:37;;;;;;;7.90;2.88;;;15.50;99.90;;;;;;4897115;29;20037;-68
2022/08/27 01:10:08;;;;;;;5.22;2.75;;;15.40;99.90;;;;;;4896729;29;20486;-71
2022/08/27 01:12:37;;;;;;;3.17;1.48;;;15.40;99.90;;;;;;4896696;29;20465;-72
2022/08/27 01:15:09;;;;;;;6.50;2.00;;;15.30;99.90;;;;;;4896091;29;20470;-70
2022/08/27 01:17:38;;;;;;;4.25;1.67;;;15.30;99.90;;;;;;4897864;29;20028;-71
2022/08/27 01:20:11;;;;;;;5.95;1.73;;;15.20;99.90;;;;;;4897082;29;20028;-71
2022/08/27 01:23:02;;;;;;;3.30;1.23;;;15.10;99.90;;;;;;4896859;29;20437;-69
2022/08/27 01:25:30;;;;;;;5.07;1.70;;;15.00;99.90;;;;;;4896028;29;20037;-68
2022/08/27 01:28:00;;;;;;;6.00;1.48;;;14.90;99.90;;;;;;4895525;29;20647;-68
2022/08/27 01:30:27;;;;;;;2.75;1.42;;;14.90;99.90;;;;;;4895699;29;20032;-66
2022/08/27 01:32:55;;;;;;;6.85;2.55;;;14.90;99.90;;;;;;4895733;29;20025;-71
2022/08/27 01:35:23;;;;;;;5.00;1.85;;;14.80;99.90;;;;;;4895326;29;20029;-72
2022/08/27 01:37:52;;;;;;;4.90;1.67;;;14.90;99.90;;;;;;4895994;29;20074;-73
2022/08/27 01:40:21;;;;;;;4.53;1.90;;;14.90;99.90;;;;;;4895183;29;20437;-70
2022/08/27 01:42:51;;;;;;;4.47;1.70;;;15.10;99.90;;;;;;4895124;29;20028;-72
2022/08/27 01:45:28;;;;;;;2.90;1.75;;;15.40;99.90;;;;;;4894100;29;20021;-65
2022/08/27 01:47:56;;;;;;;6.22;3.10;;;15.80;99.90;;;;;;4895719;29;20073;-65
2022/08/27 01:50:28;;;;;;;3.60;1.48;;;16.30;99.90;;;;;;4897307;29;20392;-72
2022/08/27 01:52:56;;;;;;;4.88;3.05;;;16.70;99.90;;;;;;4896492;29;20036;-72
2022/08/27 01:55:26;;;;;;;4.60;1.80;;;16.90;99.90;;;;;;4896827;29;20032;-71
2022/08/27 01:57:54;;;;;;;4.57;2.10;;;17.10;99.90;;;;;;4896921;29;20499;-67
2022/08/27 02:00:26;;;;;;;4.95;1.45;;;17.20;99.90;;;;;;4896993;29;20088;-68
2022/08/27 02:02:56;;;;;;;3.13;1.70;;;17.50;99.90;;;;;;4911141;29;20031;-68
2022/08/27 02:05:24;;;;;;;6.15;1.65;;;17.60;99.90;;;;;;4896408;29;20024;-69
2022/08/27 02:07:53;;;;;;;6.95;1.90;;;17.90;99.90;;;;;;4896459;29;20028;-70
2022/08/27 02:10:25;;;;;;;3.55;1.58;;;18.00;99.90;;;;;;4897016;29;20501;-70
2022/08/27 02:12:52;;;;;;;;;;;18.00;99.90;;;;;;4897206;29;20088;-72
2022/08/27 02:15:19;;;;;;;3.25;1.27;;;17.90;99.90;;;;;;4896499;29;19938;-67
2022/08/27 02:17:47;;;;;;;1.73;0.70;;;17.80;99.90;;;;;;4896032;29;20048;-70
2022/08/27 02:20:15;;;;;;;2.50;0.85;;;17.80;99.90;;;;;;4893664;29;20072;-67
2022/08/27 02:22:43;;;;;;;4.45;1.35;;;17.80;99.90;;;;;;4896252;29;20063;-70
2022/08/27 02:25:13;;;;;;;3.95;1.40;;;17.90;99.90;;;;;;4896145;29;20020;-67
2022/08/27 02:27:42;;;;;;;3.10;0.80;;;17.90;99.90;;;;;;4895258;29;20040;-70
2022/08/27 02:30:12;;;;;;;2.42;0.70;;;18.00;99.90;;;;;;4893404;29;20107;-69
2022/08/27 02:32:39;;;;;;;1.65;0.65;;;18.00;99.90;;;;;;4896289;29;20107;-68
2022/08/27 02:35:08;;;;;;;2.20;0.90;;;18.20;99.90;;;;;;4896323;29;20021;-66
2022/08/27 02:37:36;;;;;;;2.22;0.88;;;18.40;99.90;;;;;;4896491;29;20040;-68
2022/08/27 02:40:05;;;;;;;3.38;1.45;;;18.60;99.90;;;;;;4896487;29;20024;-68
2022/08/27 02:42:33;;;;;;;5.28;1.23;;;18.80;99.90;;;;;;4896091;29;20045;-69
2022/08/27 02:45:00;;;;;;;2.70;0.95;;;18.90;99.90;;;;;;4896128;29;20021;-67
2022/08/27 02:47:28;;;;;;;5.30;2.00;;;19.20;99.90;;;;;;4896710;29;20482;-69
2022/08/27 02:49:55;;;;;;;3.13;2.22;;;19.30;99.90;;;;;;4896694;29;20478;-67
2022/08/27 02:52:22;;;;;;;7.72;0.82;;;19.90;99.90;;;;;;4896047;29;20024;-68
2022/08/27 02:54:49;;;;;;;2.25;0.90;;;20.40;99.90;;;;;;4896107;29;20067;-69
2022/08/27 02:57:17;;;;;;;2.47;1.25;;;20.90;99.90;;;;;;4896629;29;20035;-68
2022/08/27 02:59:44;;;;;;;3.70;0.75;;;21.30;99.90;;;;;;4896196;29;20183;-68
2022/08/27 03:02:11;;;;;;;4.50;0.80;;;21.80;99.90;;;;;;4895659;29;20512;-69
2022/08/27 03:04:39;;;;;;;2.70;0.63;;;21.90;99.70;;;;;;4896093;29;20129;-72
2022/08/27 03:07:07;;;;;;;1.83;0.70;;;21.70;98.40;;;;;;4896121;29;20036;-72
2022/08/27 03:09:34;;;;;;;2.13;0.60;;;21.20;99.60;;;;;;4896104;29;20020;-69
2022/08/27 03:12:02;;;;;;;5.82;1.10;;;20.80;99.80;;;;;;4895685;29;20024;-68
2022/08/27 03:14:30;;;;;;;8.25;1.20;;;20.20;99.90;;;;;;4895771;29;20021;-68
2022/08/27 03:18:17;;;;;;;5.80;1.50;;;20.70;99.90;;;;;;4899751;29;20032;-68
2022/08/27 03:19:49;;;;;;;1.92;0.90;;;21.20;99.90;;;;;;4899574;29;20483;-72
2022/08/27 03:22:16;;;;;;;3.80;0.93;;;21.80;99.90;;;;;;4899636;29;20402;-68
2022/08/27 03:24:44;;;;;;;4.07;1.95;;;22.40;99.90;;;;;;4899416;29;20061;-74
2022/08/27 03:27:11;;;;;;;5.55;1.05;;;23.10;99.40;;;;;;4898981;29;20025;-69
2022/08/27 03:29:38;;;;;;;2.30;0.80;;;23.70;97.90;;;;;;4899110;29;20028;-72
2022/08/27 03:32:07;;;;;;;2.85;0.70;;;24.30;96.90;;;;;;4899788;29;20024;-69
2022/08/27 03:34:34;;;;;;;1.42;0.55;;;24.70;95.80;;;;;;4899914;29;20028;-67
2022/08/27 03:37:01;;;;;;;3.70;1.17;;;24.70;93.60;;;;;;4898969;29;20079;-70
2022/08/27 03:39:29;;;;;;;2.47;0.70;;;25.00;93.80;;;;;;4898809;29;20498;-69
2022/08/27 03:41:56;;;;;;;2.45;1.17;;;25.30;93.20;;;;;;4899596;29;20084;-73
2022/08/27 03:44:24;;;;;;;2.90;0.90;;;25.30;92.30;;;;;;4899789;29;20524;-71
2022/08/27 03:46:52;;;;;;;2.67;0.93;;;25.30;92.00;;;;;;4899524;29;20033;-68
2022/08/27 03:49:22;;;;;;;2.20;0.98;;;25.50;91.70;;;;;;4899068;29;20052;-69
2022/08/27 03:51:51;;;;;;;2.38;0.77;;;25.50;91.30;;;;;;4899303;29;20072;-72
2022/08/27 03:54:19;;;;;;;4.43;0.90;;;25.60;91.40;;;;;;4899191;29;20032;-66
2022/08/27 03:56:46;;;;;;;4.63;0.70;;;25.60;91.80;;;;;;4898732;29;20063;-67
2022/08/27 03:59:14;;;;;;;1.15;0.40;;;25.50;92.00;;;;;;4898730;29;20053;-68
2022/08/27 04:01:42;;;;;;;3.85;0.77;;;25.50;90.80;;;;;;4894097;29;20048;-67
2022/08/27 04:04:09;;;;;;;3.10;0.93;;;25.50;90.90;;;;;;4880428;29;20025;-72
2022/08/27 04:06:37;;;;;;;3.53;0.80;;;25.80;90.10;;;;;;4880161;29;20398;-72
2022/08/27 04:09:05;;;;;;;3.15;1.45;;;25.50;90.10;;;;;;4880380;29;20029;-68
2022/08/27 04:11:34;;;;;;;3.60;0.80;;;24.80;90.80;;;;;;4880093;29;20486;-67
2022/08/27 04:14:05;;;;;;;1.92;0.68;;;24.30;91.70;;;;;;4897074;29;20033;-68
2022/08/27 04:16:33;;;;;;;3.08;0.70;;;24.30;91.90;;;;;;4898876;29;20541;-70
2022/08/27 04:19:01;;;;;;;3.97;0.85;;;24.70;91.60;;;;;;4898637;29;20029;-70
2022/08/27 04:21:31;;;;;;;2.42;0.60;;;24.50;91.20;;;;;;4898681;29;20025;-72
2022/08/27 04:23:59;;;;;;;3.55;1.00;;;23.90;92.20;;;;;;4897867;29;20044;-68
2022/08/27 04:26:27;;;;;;;4.10;0.80;;;24.00;92.20;;;;;;4897525;29;20091;-68
2022/08/27 04:28:56;;;;;;;4.70;1.15;;;24.50;92.00;;;;;;4898126;29;20028;-68
2022/08/27 04:31:24;;;;;;;2.92;0.50;;;24.80;91.40;;;;;;4897272;29;20035;-69
2022/08/27 04:33:54;;;;;;;1.88;0.63;;;25.10;90.60;;;;;;4897391;29;20470;-68
2022/08/27 04:36:22;;;;;;;3.35;0.60;;;24.80;90.80;;;;;;4896228;29;20020;-68
2022/08/27 04:38:49;;;;;;;3.80;0.90;;;24.20;91.40;;;;;;4897291;29;20056;-69
2022/08/27 04:41:23;;;;;;;1.83;0.50;;;23.70;92.10;;;;;;4897619;29;20041;-68
2022/08/27 04:43:54;;;;;;;4.57;0.50;;;23.80;92.50;;;;;;4898529;29;20095;-65
2022/08/27 04:46:24;;;;;;;2.35;0.50;;;23.90;91.30;;;;;;4898373;29;20035;-71
2022/08/27 04:48:52;;;;;;;3.33;0.50;;;23.60;92.20;;;;;;4898064;29;20385;-73
2022/08/27 04:51:20;;;;;;;4.93;1.42;;;23.90;91.80;;;;;;4898046;29;20092;-72
2022/08/27 04:53:48;;;;;;;3.88;1.85;;;24.40;90.90;;;;;;4898295;29;20371;-70
2022/08/27 04:56:20;;;;;;;3.22;1.10;;;25.10;90.70;;;;;;4898202;29;20088;-70
2022/08/27 04:58:49;;;;;;;4.07;0.98;;;25.40;89.70;;;;;;4897750;29;20044;-66
2022/08/27 05:01:22;;;;;;;2.25;0.70;;;25.70;89.60;;;;;;4897389;29;20068;-70
2022/08/27 05:03:53;;;;;;;3.30;0.50;;;26.10;89.20;;;;;;4897752;29;20056;-70
2022/08/27 05:06:21;;;;;;;2.28;0.60;;;26.20;88.10;;;;;;4897466;29;20032;-71
2022/08/27 05:08:50;;;;;;;2.58;0.50;;;26.10;87.00;;;;;;4894972;29;20032;-73
2022/08/27 05:11:19;;;;;;;2.47;0.75;;;25.40;87.80;;;;;;4896924;29;20076;-71
2022/08/27 05:13:47;;;;;;;4.80;0.63;;;24.80;90.10;;;;;;4891644;29;20036;-66
2022/08/27 05:16:18;;;;;;;3.92;0.63;;;24.50;90.40;;;;;;4897085;29;20096;-69
2022/08/27 05:18:46;;;;;;;2.72;0.50;;;24.10;91.00;;;;;;4896735;29;20028;-69
2022/08/27 05:21:26;;;;;;;3.08;0.60;;;24.40;90.80;;;;;;4896978;29;20124;-70
2022/08/27 05:23:55;;;;;;;2.13;0.57;;;24.90;90.10;;;;;;4896481;29;20024;-68
2022/08/27 05:26:22;;;;;;;2.05;0.52;;;25.50;89.10;;;;;;4896448;29;20064;-68
2022/08/27 05:28:50;;;;;;;2.08;0.57;;;26.30;89.00;;;;;;4896460;29;20028;-68
2022/08/27 05:31:19;;;;;;;2.83;0.52;;;26.70;86.00;;;;;;4896996;29;20037;-66
2022/08/27 05:33:47;;;;;;;2.92;0.80;;;26.40;85.10;;;;;;4896396;29;20028;-65
2022/08/27 05:36:21;;;;;;;3.53;0.70;;;25.50;86.80;;;;;;4896812;29;20036;-70
2022/08/27 05:38:49;;;;;;;2.60;0.93;;;24.30;90.30;;;;;;4896784;29;20411;-66
2022/08/27 05:41:19;;;;;;;2.92;0.82;;;23.40;90.90;;;;;;4897106;29;20191;-65
2022/08/27 05:43:46;;;;;;;3.22;0.73;;;22.90;91.70;;;;;;4896808;29;20482;-72
2022/08/27 05:46:17;;;;;;;2.38;0.70;;;22.40;92.30;;;;;;4896945;29;20064;-70
2022/08/27 05:48:45;;;;;;;2.72;0.70;;;22.10;92.90;;;;;;4895935;29;20029;-68
2022/08/27 05:51:16;;;;;;;2.08;1.13;;;22.20;93.40;;;;;;4896491;29;20409;-67
2022/08/27 05:53:44;;;;;;;2.25;0.50;;;22.70;93.00;;;;;;4896698;29;20486;-68
2022/08/27 05:56:15;;;;;;;2.70;1.00;;;23.20;92.60;;;;;;4896760;29;20105;-68
2022/08/27 06:01:30;;;;;;;2.97;1.00;;;24.40;90.60;;;;;;4896394;29;20165;-66
2022/08/27 06:03:57;;;;;;;4.47;0.63;;;24.90;89.20;;;;;;4896798;29;20036;-71
2022/08/27 06:06:25;;;;;;;3.33;0.50;;;25.10;87.80;;;;;;4896807;29;20386;-67
2022/08/27 06:08:54;;;;;;;2.15;0.45;;;24.70;88.10;;;;;;4896787;29;20056;-67
2022/08/27 06:11:21;;;;;;;2.00;0.57;;;24.60;89.10;;;;;;4896222;29;20021;-69
2022/08/27 06:13:49;;;;;;;4.65;0.63;;;24.60;89.50;;;;;;4895791;29;20520;-69
2022/08/27 06:16:18;;;;;;;3.53;0.77;;;24.70;89.40;;;;;;4896520;29;20017;-68
2022/08/27 06:18:47;;;;;;;2.38;0.60;;;24.70;88.60;;;;;;4895802;29;20032;-71
2022/08/27 06:21:17;;;;;;;6.60;1.08;;;24.30;90.20;;;;;;4896148;29;20060;-69
2022/08/27 06:23:44;;;;;;;3.80;0.77;;;24.70;89.50;;;;;;4896481;29;20025;-69
2022/08/27 06:26:14;;;;;;;6.43;1.40;;;24.90;88.40;;;;;;4895828;29;20083;-68
2022/08/27 06:28:41;;;;;;;4.45;0.90;;;24.60;88.80;;;;;;4896489;29;20091;-71
2022/08/27 06:31:17;;;;;;;3.00;0.55;;;24.50;89.80;;;;;;4896419;29;20485;-68
2022/08/27 06:33:46;;;;;;;2.78;0.65;;;24.80;88.80;;;;;;4895863;29;20029;-69
2022/08/27 06:36:17;;;;;;;2.45;0.65;;;24.50;88.40;;;;;;4895793;29;20021;-68
2022/08/27 06:38:46;;;;;;;4.18;0.50;;;24.70;87.70;;;;;;4896111;29;20036;-71
2022/08/27 06:41:16;;;;;;;1.40;0.50;;;24.70;86.90;;;;;;4896544;29;20036;-71
2022/08/27 06:43:43;;;;;;;4.13;0.68;;;24.40;88.00;;;;;;4895900;29;20039;-66
2022/08/27 06:46:14;;;;;;;3.72;0.90;;;23.70;88.70;;;;;;4895066;29;20032;-71
2022/08/27 06:48:43;;;;;;;4.18;0.85;;;23.00;90.40;;;;;;4895756;29;20024;-67
2022/08/27 06:51:15;;;;;;;2.20;0.80;;;22.40;91.50;;;;;;4899379;29;20039;-67
2022/08/27 06:53:45;;;;;;;4.03;2.05;;;21.70;92.10;;;;;;4899849;29;20027;-69
2022/08/27 06:56:15;;;;;;;3.65;1.00;;;21.10;92.90;;;;;;4899382;29;20036;-71
2022/08/27 06:58:42;;;;;;;4.85;1.00;;;20.50;94.00;;;;;;4898433;29;20032;-71
2022/08/27 07:01:19;;;;;;;2.63;0.98;;;20.00;94.60;;;;;;4899515;29;20116;-68
2022/08/27 07:03:46;;;;;;;2.65;0.90;;;19.50;95.70;;;;;;4899473;29;20032;-67
2022/08/27 07:06:15;;;;;;;6.85;1.35;;;19.20;96.50;;;;;;4898163;29;20358;-68
2022/08/27 07:08:44;;;;;;;1.90;1.25;;;18.90;97.10;;;;;;4898118;29;20036;-64
2022/08/27 07:11:13;;;;;;;2.40;0.93;;;18.70;98.00;;;;;;4896478;29;20024;-65
2022/08/27 07:13:41;;;;;;;4.15;1.10;;;18.40;98.40;;;;;;4897152;29;20033;-67
2022/08/27 07:16:11;;;;;;;2.10;0.70;;;18.20;98.90;;;;;;4898332;29;20097;-66
2022/08/27 07:18:40;;;;;;;2.42;1.13;;;17.90;99.30;;;;;;4898201;29;20526;-68
2022/08/27 07:21:08;;;;;;;2.38;0.98;;;17.80;99.70;;;;;;4899355;29;20035;-66
2022/08/27 07:23:38;;;;;;;6.30;1.90;;;17.70;99.90;;;;;;4899673;29;20029;-67
2022/08/27 07:26:10;;;;;;;3.22;1.88;;;17.60;99.90;;;;;;4899183;29;20086;-66
2022/08/27 07:28:39;;;;;;;3.35;1.98;;;17.50;99.90;;;;;;4899757;29;20040;-66
2022/08/27 07:31:08;;;;;;;5.47;2.00;;;17.40;99.90;;;;;;4899532;29;20048;-68
2022/08/27 07:33:37;;;;;;;8.35;3.72;;;17.30;99.90;;;;;;4899961;29;20088;-67
2022/08/27 07:36:06;;;;;;;5.35;3.10;;;17.20;99.90;;;;;;4900007;29;20028;-71
2022/08/27 07:38:36;;;;;;;5.35;2.10;;;17.10;99.90;;;;;;4898857;29;20089;-68
2022/08/27 07:41:08;;;;;;;5.68;1.73;;;17.00;99.90;;;;;;4897703;29;20111;-67
2022/08/27 07:46:22;;;;;;;4.60;1.50;;;16.80;99.90;;;;;;4898054;29;20031;-66
2022/08/27 07:48:50;;;;;;;5.15;2.00;;;16.70;99.90;;;;;;4898787;29;20063;-65
2022/08/27 07:51:20;;;;;;;3.08;1.73;;;16.70;99.90;;;;;;4899024;29;20021;-67
2022/08/27 07:53:48;;;;;;;10.00;2.33;;;16.50;99.90;;;;;;4898523;29;20124;-71
2022/08/27 07:56:16;;;;;;;4.88;2.30;;;16.60;99.90;;;;;;4880294;29;20028;-67
2022/08/27 07:58:43;;;;;;;4.97;2.42;;;16.50;99.90;;;;;;4880516;29;20063;-67
2022/08/27 08:01:11;;;;;;;6.05;1.70;;;16.40;99.90;;;;;;4879323;29;20487;-68
2022/08/27 08:03:38;;;;;;;5.55;2.40;;;16.30;99.90;;;;;;4890375;29;20131;-67
2022/08/27 08:06:10;;;;;;;8.30;4.10;;;16.20;99.90;;;;;;4897644;29;20047;-68
2022/08/27 08:08:39;;;;;;;9.13;3.95;;;16.20;99.90;;;;;;4898829;29;20032;-66
2022/08/27 08:11:18;;;;;;;7.25;3.40;;;16.10;99.90;;;;;;4898617;29;20094;-68
2022/08/27 08:13:46;;;;;;;8.00;3.83;;;16.10;99.90;;;;;;4898493;29;20402;-67
2022/08/27 08:16:15;;;;;;;10.75;3.58;;;16.00;99.90;;;;;;4899246;29;20021;-66
2022/08/27 08:18:42;;;;;;;7.55;3.33;;;15.90;99.90;;;;;;4898851;29;20088;-68
2022/08/27 08:21:13;;;;;;;6.93;3.58;;;15.90;99.90;;;;;;4898820;29;20024;-70
2022/08/27 08:23:42;;;;;;;10.25;6.55;;;15.90;99.90;;;;;;4898871;29;20119;-69
2022/08/27 08:26:11;;;;;;;11.60;6.13;;;15.80;99.90;;;;;;4898686;29;20048;-69
2022/08/27 08:28:39;;;;;;;10.77;4.72;;;15.70;99.90;;;;;;4898907;29;20449;-70
2022/08/27 08:31:07;;;;;;;13.40;6.53;;;15.70;99.90;;;;;;4889179;29;20482;-67
2022/08/27 08:33:35;;;;;;;12.10;7.40;;;15.60;99.90;;;;;;4898641;29;20030;-69
2022/08/27 08:36:14;;;;;;;13.90;9.52;;;15.60;99.90;;;;;;4898301;29;20037;-66
2022/08/27 08:38:42;;;;;;;16.33;10.70;;;15.50;99.90;;;;;;4898525;29;20060;-70
2022/08/27 08:41:27;;;;;;;14.40;10.98;;;15.50;99.90;;;;;;4896712;29;20037;-69
2022/08/27 08:43:56;;;;;;;15.82;9.02;;;15.40;99.90;;;;;;4896170;29;20024;-70
2022/08/27 08:46:52;;;;;;;11.27;7.50;;;15.40;99.90;;;;;;4896840;29;20486;-69
2022/08/27 08:49:37;;;;;;;9.23;5.60;;;15.40;99.90;;;;;;4897852;29;20029;-68
2022/08/27 08:52:11;;;;;;;8.82;5.13;;;15.30;99.90;;;;;;4895751;29;20118;-67
2022/08/27 08:54:38;;;;;;;8.95;4.40;;;15.30;99.90;;;;;;4897167;29;20040;-68
2022/08/27 08:57:28;;;;;;;11.88;4.97;;;15.30;99.90;;;;;;4896231;29;20033;-66
2022/08/27 09:00:11;;;;;;;8.68;4.22;;;15.20;99.90;;;;;;4895296;29;20047;-67
2022/08/27 09:02:40;;;;;;;9.23;4.53;;;15.20;99.90;;;;;;4895374;29;20071;-69
2022/08/27 09:05:09;;;;;;;8.35;4.05;;;15.20;99.90;;;;;;4892131;29;20061;-70
2022/08/27 09:08:07;;;;;;;8.60;4.68;;;15.20;99.90;;;;;;4894738;29;20112;-71
2022/08/27 09:10:43;;;;;;;9.80;4.05;;;15.20;99.90;;;;;;4895766;29;20116;-74
2022/08/27 09:13:29;;;;;;;9.10;4.68;;;15.20;99.90;;;;;;4893147;29;20123;-71
2022/08/27 09:16:01;;;;;;;8.65;4.55;;;15.10;99.90;;;;;;4892926;29;20611;-72
2022/08/27 09:18:28;;;;;;;12.40;5.07;;;15.10;99.90;;;;;;4896211;29;20107;-73
2022/08/27 09:21:31;;;;;;;8.73;4.32;;;15.00;99.90;;;;;;4895941;29;20041;-70
2022/08/27 09:24:27;;;;;;;10.00;4.15;;;15.00;99.90;;;;;;4877976;29;20107;-70
2022/08/27 09:26:55;;;;;;;8.75;4.60;;;15.00;99.90;;;;;;4894676;29;20043;-72
2022/08/27 09:29:27;;;;;;;9.18;5.03;;;14.90;99.90;;;;;;4895863;29;20151;-75
2022/08/27 09:31:54;;;;;;;11.55;5.32;;;14.90;99.90;;;;;;4893547;29;20024;-73
2022/08/27 09:34:23;;;;;;;9.35;4.82;;;14.90;99.90;;;;;;4895289;29;20044;-68
2022/08/27 09:37:11;;;;;;;11.15;5.38;;;14.90;99.90;;;;;;4895064;29;20076;-70
2022/08/27 09:40:10;;;;;;;10.52;6.45;;;14.80;99.90;;;;;;4893695;29;20033;-70
2022/08/27 09:42:51;;;;;;;14.02;8.68;;;14.80;99.90;;;;;;4892248;29;20040;-70
2022/08/27 09:45:23;;;;;;;12.63;7.22;;;14.70;99.90;;;;;;4893409;29;20040;-71
2022/08/27 09:48:02;;;;;;;11.13;6.27;;;14.80;99.90;;;;;;4894802;29;20027;-70
2022/08/27 09:50:41;;;;;;;14.38;7.47;;;14.80;99.90;;;;;;4895052;29;20112;-72
2022/08/27 09:53:52;;;;;;;9.38;5.93;;;14.70;99.90;;;;;;4892717;29;20036;-73
2022/08/27 09:56:47;;;;;;;9.38;6.03;;;14.60;99.90;;;;;;4876800;29;20094;-73
2022/08/27 09:59:25;;;;;;;12.40;6.70;;;14.60;99.90;;;;;;4894671;29;20071;-71
2022/08/27 10:02:14;;;;;;;10.57;6.63;;;14.60;99.90;;;;;;4892812;29;20087;-70
2022/08/27 10:04:45;;;;;;;10.73;6.72;;;14.50;99.90;;;;;;4892406;29;20025;-70
2022/08/27 10:07:32;;;;;;;12.45;7.63;;;14.50;99.90;;;;;;4895149;29;20505;-68
2022/08/27 10:10:09;;;;;;;13.95;9.07;;;14.50;99.90;;;;;;4895540;29;20044;-69
2022/08/27 10:12:50;;;;;;;15.38;8.57;;;14.40;99.90;;;;;;4894146;29;20390;-72
2022/08/27 10:15:18;;;;;;;16.52;8.65;;;14.40;99.90;;;;;;4894156;29;20086;-72
2022/08/27 10:18:06;;;;;;;13.70;7.75;;;14.30;99.90;;;;;;4894721;29;20020;-72
2022/08/27 10:20:54;;;;;;;12.18;8.02;;;14.20;99.90;;;;;;4893077;29;20175;-71
2022/08/27 10:23:36;;;;;;;14.10;7.50;;;14.20;99.90;;;;;;4894923;29;20032;-71
2022/08/27 10:26:16;;;;;;;16.23;7.50;;;14.10;99.90;;;;;;4891193;29;20103;-70
2022/08/27 10:29:07;;;;;;;11.30;8.48;;;14.10;99.90;;;;;;4892546;29;20036;-70
2022/08/27 10:31:54;;;;;;;13.68;8.57;;;14.10;99.90;;;;;;4895102;29;20032;-71
2022/08/27 10:34:45;;;;;;;11.55;7.80;;;14.00;99.90;;;;;;4894690;29;20039;-71
2022/08/27 10:37:36;;;;;;;13.40;8.50;;;14.00;99.90;;;;;;4892892;29;20024;-69
2022/08/27 10:40:05;;;;;;;11.38;7.47;;;14.00;99.90;;;;;;4893426;29;20091;-70
2022/08/27 10:42:42;;;;;;;13.27;8.30;;;13.90;99.90;;;;;;4894474;29;20158;-71
2022/08/27 10:45:41;;;;;;;10.95;7.40;;;13.90;99.90;;;;;;4894553;29;20397;-72
2022/08/27 10:48:46;;;;;;;12.70;7.18;;;13.80;99.90;;;;;;4894463;29;20032;-70
2022/08/27 10:51:31;;;;;;;22.85;15.00;;;13.70;99.90;;;;;;4863394;29;20043;-70
2022/08/27 10:54:24;;;;;;;15.00;10.90;;;13.70;99.90;;;;;;4892816;29;20385;-71
2022/08/27 10:57:00;;;;;;;14.35;11.98;;;13.70;99.90;;;;;;4892044;29;20028;-73
2022/08/27 10:59:39;;;;;;;18.38;10.00;;;13.70;99.90;;;;;;4894922;29;20040;-72
2022/08/27 11:02:25;;;;;;;13.35;8.90;;;13.60;99.90;;;;;;4891538;29;20044;-72
2022/08/27 11:05:13;;;;;;;16.23;9.38;;;13.70;99.90;;;;;;4895392;29;20103;-71
2022/08/27 11:07:51;;;;;;;14.75;9.55;;;13.60;99.90;;;;;;4895209;29;20021;-72
2022/08/27 11:10:35;;;;;;;11.48;8.68;;;13.50;99.90;;;;;;4895865;29;20103;-68
2022/08/27 11:13:28;;;;;;;13.75;10.15;;;13.50;99.90;;;;;;4895712;29;20037;-72
2022/08/27 11:15:58;;;;;;;;;;;13.40;99.90;;;;;;4895878;29;20029;-69
2022/08/27 11:18:55;;;;;;;13.52;8.68;;;13.50;99.90;;;;;;4895848;29;19912;-69
2022/08/27 11:21:39;;;;;;;12.23;8.57;;;13.40;99.90;;;;;;4890951;29;20642;-74
2022/08/27 11:24:15;;;;;;;14.88;9.32;;;13.50;99.90;;;;;;4895425;29;20051;-72
2022/08/27 11:26:43;;;;;;;14.07;10.13;;;13.40;99.90;;;;;;4895772;29;20077;-74
2022/08/27 11:29:37;;;;;;;18.40;11.23;;;13.40;99.90;;;;;;4896067;29;20020;-68
2022/08/27 11:32:11;;;;;;;17.48;12.80;;;13.40;99.90;;;;;;4893874;29;20060;-67
2022/08/27 11:34:51;;;;;;;19.42;14.50;;;13.60;99.90;;;;;;4895773;29;20025;-72
2022/08/27 11:37:24;;;;;;;18.25;12.57;;;13.60;99.90;;;;;;4896807;29;20088;-71
2022/08/27 11:40:06;;;;;;;21.00;13.82;;;13.70;99.90;;;;;;4898881;29;20043;-73
2022/08/27 11:42:54;;;;;;;16.75;11.48;;;13.80;99.90;;;;;;4898607;29;20379;-70
2022/08/27 11:45:37;;;;;;;16.30;11.52;;;13.80;99.90;;;;;;4898836;29;20032;-68
2022/08/27 11:48:24;;;;;;;16.52;10.70;;;13.80;99.90;;;;;;4899278;29;20076;-73
2022/08/27 11:51:11;;;;;;;14.70;11.00;;;13.90;99.90;;;;;;4898488;29;20032;-71
2022/08/27 11:53:53;;;;;;;17.15;10.88;;;13.90;99.90;;;;;;4898611;29;20109;-72
2022/08/27 11:56:34;;;;;;;18.88;11.68;;;14.00;99.90;;;;;;4897214;29;20068;-72
2022/08/27 11:59:28;;;;;;;16.88;11.88;;;14.00;99.90;;;;;;4895202;29;20044;-72
2022/08/27 12:02:09;;;;;;;17.85;12.20;;;14.00;99.90;;;;;;4895709;29;20036;-72
2022/08/27 12:04:40;;;;;;;16.67;12.98;;;14.10;99.90;;;;;;4897418;29;20435;-70
2022/08/27 12:07:28;;;;;;;16.38;11.00;;;14.00;99.90;;;;;;4896301;29;20028;-73
2022/08/27 12:10:01;;;;;;;17.67;11.25;;;13.90;99.90;;;;;;4897007;29;20042;-68
2022/08/27 12:12:56;;;;;;;16.95;11.95;;;14.00;99.90;;;;;;4895842;29;20035;-69
2022/08/27 12:15:32;;;;;;;17.13;12.20;;;14.00;99.90;;;;;;4897142;29;20056;-74
2022/08/27 12:18:19;;;;;;;19.40;12.57;;;14.00;99.90;;;;;;4895079;29;20394;-72
2022/08/27 12:21:03;;;;;;;17.50;12.85;;;14.00;99.90;;;;;;4896039;29;20036;-71
2022/08/27 12:23:49;;;;;;;18.65;12.98;;;14.10;99.90;;;;;;4896058;29;20032;-64
2022/08/27 12:26:29;;;;;;;19.80;12.73;;;14.00;99.90;;;;;;4894271;29;20025;-66
2022/08/27 12:29:30;;;;;;;15.68;11.38;;;14.10;99.90;;;;;;4894259;29;20455;-64
2022/08/27 12:32:35;;;;;;;15.95;11.02;;;14.00;99.90;;;;;;4896883;29;20029;-71
2022/08/27 12:35:27;;;;;;;15.02;10.80;;;14.00;99.90;;;;;;4860109;29;20040;-69
2022/08/27 12:38:16;;;;;;;18.43;12.40;;;14.00;99.90;;;;;;4885547;29;20442;-66
2022/08/27 12:40:56;;;;;;;18.35;12.43;;;14.00;99.90;;;;;;4896787;29;20021;-67
2022/08/27 12:43:24;;;;;;;16.02;11.43;;;14.00;99.90;;;;;;4879134;29;20103;-71
2022/08/27 12:46:04;;;;;;;17.80;13.13;;;14.00;99.90;;;;;;4885339;29;20040;-66
2022/08/27 12:48:34;;;;;;;17.20;11.65;;;13.90;99.90;;;;;;4896923;29;20513;-72
2022/08/27 12:51:06;;;;;;;18.88;13.85;;;13.90;99.90;;;;;;4897820;29;20036;-67
2022/08/27 12:53:41;;;;;;;17.60;13.00;;;13.90;99.90;;;;;;4897981;29;20068;-68
2022/08/27 12:56:32;;;;;;;16.95;12.43;;;13.90;99.90;;;;;;4898041;29;20036;-66
2022/08/27 12:59:30;;;;;;;15.27;12.15;;;13.90;99.90;;;;;;4897386;29;20052;-68
2022/08/27 13:01:57;;;;;;;15.05;11.50;;;13.80;99.90;;;;;;4897916;29;20036;-67
2022/08/27 13:04:30;;;;;;;15.20;12.07;;;13.80;99.90;;;;;;4897854;29;20029;-67
2022/08/27 13:06:57;;;;;;;14.00;12.07;;;13.70;99.90;;;;;;4897613;29;20033;-67
2022/08/27 13:09:31;;;;;;;15.35;12.45;;;13.80;99.90;;;;;;4897585;29;20557;-69
2022/08/27 13:12:00;;;;;;;15.25;10.73;;;13.70;99.90;;;;;;4897683;29;20476;-68
2022/08/27 13:14:35;;;;;;;15.57;10.75;;;13.80;99.90;;;;;;4897696;29;20020;-66
2022/08/27 13:17:14;;;;;;;14.93;9.68;;;13.70;99.90;;;;;;4896999;29;20032;-65
2022/08/27 13:19:57;;;;;;;16.75;10.85;;;13.60;99.90;;;;;;4897454;29;20045;-66
2022/08/27 13:22:37;;;;;;;13.27;9.75;;;13.60;99.90;;;;;;4897160;29;20394;-67